createdAt,value
2023-03-12T00:00:15.715Z,100103.22
2023-03-12T00:02:43.731Z,100095.47
2023-03-12T00:05:10.906Z,100075.59
2023-03-12T00:07:38.817Z,100060.91
2023-03-12T00:10:08.631Z,100099.78
2023-03-12T00:12:43.424Z,100020.34
2023-03-12T00:15:23.729Z,100110.97
2023-03-12T00:17:52.029Z,100090.25
2023-03-12T00:20:23.825Z,100135.06
2023-03-12T00:22:51.799Z,100132.47
2023-03-12T00:25:20.453Z,100154.09
2023-03-12T00:28:01.161Z,100155.81
2023-03-12T00:30:30.403Z,100046.13
2023-03-12T00:33:01.374Z,100148.84
2023-03-12T00:35:34.175Z,100159.31
2023-03-12T00:38:00.910Z,100157.56
2023-03-12T00:40:27.453Z,100126.47
2023-03-12T00:42:54.533Z,100091.91
2023-03-12T00:45:24.638Z,100054.78
2023-03-12T00:47:52.496Z,100073.72
2023-03-12T00:50:21.143Z,100090.09
2023-03-12T00:52:55.400Z,100103.03
2023-03-12T00:55:22.857Z,100131.44
2023-03-12T00:57:50.164Z,100142.63
2023-03-12T01:00:20.889Z,100099.44
2023-03-12T01:02:47.882Z,100113.19
2023-03-12T01:05:15.568Z,100144.25
2023-03-12T01:07:42.883Z,100142.50
2023-03-12T01:10:12.124Z,100142.47
2023-03-12T01:12:45.551Z,100089.84
2023-03-12T01:15:17.625Z,100138.97
2023-03-12T01:20:39.110Z,100119.97
2023-03-12T01:23:17.968Z,100138.91
2023-03-12T01:25:57.955Z,100145.78
2023-03-12T01:28:35.495Z,100127.59
2023-03-12T01:31:14.090Z,100143.03
2023-03-12T01:33:41.075Z,100148.19
2023-03-12T01:36:21.792Z,100143.72
2023-03-12T01:38:52.051Z,100145.38
2023-03-12T01:44:19.190Z,100138.44
2023-03-12T01:46:48.745Z,100126.25
2023-03-12T01:49:29.371Z,100138.22
2023-03-12T01:52:01.823Z,100133.94
2023-03-12T01:54:53.434Z,100141.88
2023-03-12T01:57:24.750Z,100132.53
2023-03-12T02:00:10.403Z,100041.94
2023-03-12T02:02:39.116Z,100130.69
2023-03-12T02:05:17.877Z,100068.44
2023-03-12T02:07:44.628Z,100122.56
2023-03-12T02:10:12.797Z,100107.81
2023-03-12T02:12:40.174Z,100066.31
2023-03-12T02:18:00.549Z,100106.75
2023-03-12T02:20:42.547Z,100111.91
2023-03-12T02:23:15.141Z,100099.78
2023-03-12T02:25:52.141Z,100103.22
2023-03-12T02:28:26.214Z,100111.88
2023-03-12T02:30:59.953Z,100107.56
2023-03-12T02:33:32.072Z,100075.66
2023-03-12T02:35:58.836Z,100115.38
2023-03-12T02:38:31.334Z,100119.75
2023-03-12T02:41:15.617Z,100123.25
2023-03-12T02:43:48.051Z,100126.75
2023-03-12T02:46:15.955Z,100119.75
2023-03-12T02:48:43.186Z,100110.16
2023-03-12T02:54:01.855Z,100097.13
2023-03-12T02:56:29.841Z,100080.66
2023-03-12T02:58:59.162Z,100093.59
2023-03-12T03:01:27.957Z,100083.28
2023-03-12T03:03:55.045Z,100077.34
2023-03-12T03:06:23.496Z,100097.13
2023-03-12T03:08:50.314Z,100092.88
2023-03-12T03:11:17.400Z,100092.09
2023-03-12T03:13:44.065Z,100077.47
2023-03-12T03:16:14.956Z,100049.97
2023-03-12T03:18:44.799Z,100049.84
2023-03-12T03:21:17.189Z,100043.69
2023-03-12T03:23:45.825Z,100013.56
2023-03-12T03:26:18.139Z,100059.13
2023-03-12T03:28:45.200Z,100038.34
2023-03-12T03:31:19.232Z,100065.06
2023-03-12T03:33:49.133Z,100016.72
2023-03-12T03:36:18.718Z,100075.38
2023-03-12T03:38:50.360Z,100057.25
2023-03-12T03:44:12.793Z,100092.75
2023-03-12T03:46:42.464Z,100065.84
2023-03-12T03:49:09.873Z,100074.31
2023-03-12T03:51:38.830Z,100057.97
2023-03-12T03:54:05.522Z,100021.06
2023-03-12T03:56:33.215Z,100064.41
2023-03-12T03:59:00.178Z,100075.72
2023-03-12T04:01:31.405Z,100070.59
2023-03-12T04:04:00.189Z,100065.25
2023-03-12T04:06:26.798Z,100064.41
2023-03-12T04:08:53.496Z,100068.75
2023-03-12T04:11:22.759Z,100048.91
2023-03-12T04:13:50.431Z,100060.19
2023-03-12T04:16:23.180Z,100080.91
2023-03-12T04:18:54.554Z,100072.25
2023-03-12T04:21:26.714Z,100079.28
2023-03-12T04:23:55.697Z,100073.09
2023-03-12T04:26:25.093Z,100072.25
2023-03-12T04:28:51.898Z,100077.56
2023-03-12T04:31:20.976Z,100083.84
2023-03-12T04:33:48.071Z,100069.28
2023-03-12T04:36:26.531Z,100084.78
2023-03-12T04:38:54.157Z,100090.84
2023-03-12T04:41:21.667Z,100074.50
2023-03-12T04:43:48.702Z,100069.38
2023-03-12T04:46:15.493Z,100095.25
2023-03-12T04:48:43.479Z,100085.78
2023-03-12T04:51:10.617Z,100072.78
2023-03-12T04:53:39.684Z,100091.66
2023-03-12T04:56:06.635Z,100048.34
2023-03-12T04:58:35.779Z,100020.69
2023-03-12T05:01:03.139Z,100087.09
2023-03-12T05:03:34.108Z,100075.91
2023-03-12T05:06:03.986Z,100086.34
2023-03-12T05:08:30.564Z,100089.72
2023-03-12T05:11:00.161Z,100080.22
2023-03-12T05:13:27.871Z,100058.56
2023-03-12T05:15:54.485Z,100053.31
2023-03-12T05:18:21.533Z,100062.81
2023-03-12T05:20:57.862Z,100060.22
2023-03-12T05:23:24.569Z,100042.84
2023-03-12T05:25:54.248Z,100035.88
2023-03-12T05:28:24.326Z,100019.44
2023-03-12T05:30:56.356Z,100006.50
2023-03-12T05:33:24.248Z,99969.44
2023-03-12T05:35:51.225Z,100033.94
2023-03-12T05:38:18.361Z,100009.88
2023-03-12T05:41:07.635Z,100009.91
2023-03-12T05:43:36.070Z,99999.63
2023-03-12T05:48:51.116Z,100018.72
2023-03-12T05:51:22.045Z,100039.41
2023-03-12T05:53:51.237Z,100052.22
2023-03-12T05:56:19.940Z,100047.03
2023-03-12T05:59:09.471Z,99994.47
2023-03-12T06:04:35.692Z,100012.22
2023-03-12T06:07:05.453Z,99969.03
2023-03-12T06:09:32.261Z,100003.31
2023-03-12T06:14:48.118Z,100010.66
2023-03-12T06:20:13.337Z,100030.59
2023-03-12T06:22:42.925Z,99991.00
2023-03-12T06:25:35.803Z,99997.28
2023-03-12T06:28:06.319Z,100020.59
2023-03-12T06:30:37.010Z,100026.72
2023-03-12T06:44:13.570Z,99998.09
2023-03-12T06:46:44.550Z,100003.22
2023-03-12T06:49:12.407Z,100038.50
2023-03-12T06:51:44.435Z,100030.63
2023-03-12T06:54:14.125Z,99991.00
2023-03-12T06:56:42.911Z,99985.81
2023-03-12T06:59:12.577Z,99998.72
2023-03-12T07:01:43.300Z,100024.31
2023-03-12T07:04:09.734Z,100036.09
2023-03-12T07:06:50.699Z,100037.63
2023-03-12T07:09:19.319Z,100040.84
2023-03-12T07:11:46.245Z,100026.06
2023-03-12T07:14:12.915Z,100038.88
2023-03-12T07:16:42.612Z,99995.59
2023-03-12T07:19:13.041Z,99932.47
2023-03-12T07:21:43.338Z,99984.84
2023-03-12T07:29:41.349Z,100038.19
2023-03-12T07:32:09.228Z,99973.59
2023-03-12T07:34:37.119Z,100040.63
2023-03-12T07:37:06.252Z,100036.28
2023-03-12T07:39:38.275Z,99974.41
2023-03-12T07:42:51.389Z,99963.88
2023-03-12T07:45:25.162Z,99985.19
2023-03-12T07:47:56.128Z,99974.72
2023-03-12T07:50:24.234Z,99957.63
2023-03-12T07:52:52.170Z,99998.81
2023-03-12T07:55:22.395Z,100004.78
2023-03-12T07:57:49.329Z,100000.38
2023-03-12T08:00:31.451Z,100020.56
2023-03-12T08:08:47.986Z,100022.75
2023-03-12T08:14:46.632Z,100019.59
2023-03-12T08:17:15.755Z,100041.44
2023-03-12T08:19:46.674Z,100014.81
2023-03-12T08:22:14.389Z,100014.72
2023-03-12T08:24:47.975Z,100010.25
2023-03-12T08:27:14.939Z,100029.22
2023-03-12T08:29:42.876Z,100015.44
2023-03-12T08:32:20.116Z,100020.59
2023-03-12T08:51:16.824Z,100033.03
2023-03-12T08:56:55.997Z,100020.66
2023-03-12T09:08:00.917Z,99981.03
2023-03-12T09:10:34.423Z,100002.63
2023-03-12T09:13:01.919Z,99967.38
2023-03-12T09:18:12.165Z,100015.84
2023-03-12T09:39:52.989Z,100011.69
2023-03-12T09:45:31.042Z,99995.56
2023-03-12T09:48:05.860Z,99989.72
2023-03-12T09:50:55.861Z,100014.72
2023-03-12T09:53:45.347Z,100021.78
2023-03-12T09:56:47.678Z,100034.72
2023-03-12T09:59:17.358Z,100018.19
2023-03-12T10:02:06.408Z,99998.25
2023-03-12T10:13:51.113Z,100022.84
2023-03-12T10:16:55.422Z,99991.78
2023-03-12T10:19:36.070Z,100027.81
2023-03-12T10:22:19.831Z,100037.38
2023-03-12T10:25:19.605Z,100033.53
2023-03-12T10:27:47.823Z,99983.41
2023-03-12T10:30:38.995Z,100029.09
2023-03-12T10:33:14.616Z,100026.16
2023-03-12T10:35:42.917Z,100016.88
2023-03-12T10:38:29.404Z,100026.38
2023-03-12T10:40:59.518Z,100014.06
2023-03-12T10:43:34.657Z,100008.00
2023-03-12T10:46:54.786Z,99943.78
2023-03-12T10:49:21.750Z,99976.09
2023-03-12T10:52:15.958Z,100005.97
2023-03-12T10:54:50.473Z,99969.38
2023-03-12T11:00:28.570Z,99983.53
2023-03-12T11:03:12.781Z,99985.78
2023-03-12T11:05:54.527Z,99969.88
2023-03-12T11:08:32.875Z,99992.16
2023-03-12T11:11:02.311Z,99996.25
2023-03-12T11:13:50.324Z,99968.78
2023-03-12T11:16:19.997Z,99970.19
2023-03-12T11:19:14.965Z,99999.13
2023-03-12T11:22:01.277Z,99990.41
2023-03-12T11:24:31.526Z,99966.47
2023-03-12T11:27:27.234Z,99992.78
2023-03-12T11:29:57.435Z,100000.81
2023-03-12T11:32:34.664Z,99963.19
2023-03-12T11:35:02.172Z,99938.69
2023-03-12T11:38:00.574Z,100010.75
2023-03-12T11:40:46.205Z,100003.41
2023-03-12T11:43:50.378Z,99997.25
2023-03-12T11:46:55.094Z,99995.28
2023-03-12T11:50:13.622Z,100007.81
2023-03-12T11:53:05.018Z,99998.63
2023-03-12T11:56:25.762Z,99989.56
2023-03-12T11:59:14.719Z,99959.66
2023-03-12T12:02:02.134Z,99987.16
2023-03-12T12:04:59.665Z,99983.56
2023-03-12T12:08:06.473Z,99984.25
2023-03-12T12:11:07.444Z,99937.34
2023-03-12T12:14:03.410Z,99929.72
2023-03-12T12:17:10.692Z,99961.25
2023-03-12T12:20:17.013Z,99961.28
2023-03-12T12:26:24.539Z,99941.72
2023-03-12T12:29:24.284Z,99948.38
2023-03-12T12:35:20.121Z,99940.00
2023-03-12T12:38:14.902Z,99929.97
2023-03-12T12:43:48.842Z,99920.56
2023-03-12T12:52:00.972Z,99914.53
2023-03-12T12:54:44.720Z,99911.16
2023-03-12T12:57:39.352Z,99912.56
2023-03-12T13:00:15.685Z,99909.50
2023-03-12T13:02:48.781Z,99895.16
2023-03-12T13:05:42.956Z,99937.13
2023-03-12T13:09:07.154Z,99928.75
2023-03-12T13:11:49.901Z,99905.78
2023-03-12T13:14:28.467Z,99919.78
2023-03-12T13:17:09.551Z,99923.63
2023-03-12T13:20:00.857Z,99919.25
2023-03-12T13:22:38.316Z,99905.59
2023-03-12T13:29:11.392Z,99901.19
2023-03-12T13:34:32.356Z,99881.41
2023-03-12T13:40:04.431Z,99852.09
2023-03-12T13:42:40.441Z,99841.59
2023-03-12T13:45:27.323Z,99888.16
2023-03-12T13:48:06.493Z,99857.75
2023-03-12T13:50:53.158Z,99899.69
2023-03-12T13:53:29.582Z,99862.53
2023-03-12T13:56:36.377Z,99898.13
2023-03-12T13:59:08.625Z,99867.16
2023-03-12T14:04:42.117Z,99833.56
2023-03-12T14:07:48.067Z,99899.44
2023-03-12T14:10:47.344Z,99859.19
2023-03-12T14:19:34.787Z,99835.69
2023-03-12T14:22:08.916Z,99871.72
2023-03-12T14:25:01.394Z,99877.16
2023-03-12T14:27:36.089Z,99827.38
2023-03-12T14:30:24.515Z,99872.94
2023-03-12T14:33:01.450Z,99874.78
2023-03-12T14:35:34.831Z,99844.22
2023-03-12T14:38:47.118Z,99840.72
2023-03-12T14:41:31.392Z,99848.91
2023-03-12T14:44:11.168Z,99847.88
2023-03-12T14:46:58.244Z,99853.88
2023-03-12T14:52:25.382Z,99851.22
2023-03-12T14:55:08.484Z,99859.72
2023-03-12T14:57:39.422Z,99840.53
2023-03-12T15:00:18.030Z,99851.63
2023-03-12T15:05:38.364Z,99851.81
2023-03-12T15:08:17.781Z,99843.03
2023-03-12T15:16:40.978Z,99844.38
2023-03-12T15:19:21.439Z,99797.94
2023-03-12T15:21:49.090Z,99827.06
2023-03-12T15:27:25.537Z,99764.50
2023-03-12T15:29:54.292Z,99813.81
2023-03-12T15:32:27.422Z,99814.53
2023-03-12T15:35:04.851Z,99821.44
2023-03-12T15:37:41.918Z,99816.38
2023-03-12T15:40:22.744Z,99820.72
2023-03-12T15:42:58.084Z,99820.78
2023-03-12T15:45:46.330Z,99825.22
2023-03-12T15:48:35.712Z,99829.63
2023-03-12T15:51:05.448Z,99810.09
2023-03-12T15:53:37.275Z,99813.72
2023-03-12T15:59:23.225Z,99786.88
2023-03-12T16:01:53.440Z,99806.41
2023-03-12T16:05:41.634Z,99809.53
2023-03-12T16:11:42.511Z,99812.66
2023-03-12T16:14:31.619Z,99816.00
2023-03-12T16:17:05.001Z,99819.44
2023-03-12T16:19:35.823Z,99803.97
2023-03-12T16:22:03.755Z,99796.91
2023-03-12T16:24:39.139Z,99806.13
2023-03-12T16:27:23.640Z,99823.44
2023-03-12T16:32:44.273Z,99820.22
2023-03-12T16:35:19.094Z,99779.22
2023-03-12T16:37:48.732Z,99830.78
2023-03-12T16:40:30.953Z,99806.22
2023-03-12T16:43:23.077Z,99793.47
2023-03-12T16:45:53.634Z,99827.47
2023-03-12T16:48:26.879Z,99837.84
2023-03-12T16:51:00.175Z,99833.34
2023-03-12T16:53:27.223Z,99823.91
2023-03-12T16:55:56.504Z,99821.16
2023-03-12T16:58:27.581Z,99783.31
2023-03-12T17:00:55.789Z,99828.38
2023-03-12T17:06:48.914Z,99811.41
2023-03-12T17:13:14.395Z,99830.78
2023-03-12T17:18:31.337Z,99829.31
2023-03-12T17:21:01.943Z,99827.38
2023-03-12T17:26:25.953Z,99846.63
2023-03-12T17:31:50.052Z,99863.09
2023-03-12T17:34:21.330Z,99860.47
2023-03-12T17:36:54.343Z,99855.91
2023-03-12T17:43:07.404Z,99867.31
2023-03-12T17:48:35.415Z,99871.63
2023-03-12T17:51:16.013Z,99867.22
2023-03-12T17:53:48.091Z,99876.06
2023-03-12T17:56:23.647Z,99886.59
2023-03-12T18:07:14.808Z,99883.88
2023-03-12T18:09:46.533Z,99891.88
2023-03-12T18:15:22.701Z,99885.44
2023-03-12T18:17:56.727Z,99910.56
2023-03-12T18:20:36.201Z,99880.56
2023-03-12T18:23:13.019Z,99883.59
2023-03-12T18:28:35.943Z,99899.44
2023-03-12T18:33:57.234Z,99805.50
2023-03-12T18:36:38.871Z,99890.00
2023-03-12T18:39:17.473Z,99888.44
2023-03-12T18:44:26.262Z,99894.78
2023-03-12T18:47:30.617Z,99907.22
2023-03-12T18:56:27.200Z,99901.88
2023-03-12T18:58:54.459Z,99891.81
2023-03-12T19:01:57.434Z,99858.59
2023-03-12T19:04:26.796Z,99894.25
2023-03-12T19:07:55.716Z,99917.03
2023-03-12T19:16:12.285Z,99924.25
2023-03-12T19:18:40.186Z,99917.44
2023-03-12T19:32:22.003Z,99915.66
2023-03-12T19:34:56.950Z,99918.22
2023-03-12T19:37:29.861Z,99909.50
2023-03-12T19:40:04.284Z,99912.94
2023-03-12T19:42:33.449Z,99920.63
2023-03-12T19:45:02.112Z,99909.34
2023-03-12T19:47:30.289Z,99912.69
2023-03-12T19:49:59.746Z,99904.53
2023-03-12T19:52:29.331Z,99902.03
2023-03-12T19:55:04.296Z,99897.47
2023-03-12T19:57:33.842Z,99899.97
2023-03-12T20:00:08.363Z,99878.72
2023-03-12T20:02:36.901Z,99884.69
2023-03-12T20:05:07.870Z,99884.69
2023-03-12T20:07:35.758Z,99904.53
2023-03-12T20:10:04.430Z,99889.84
2023-03-12T20:12:33.518Z,99872.81
2023-03-12T20:15:00.954Z,99856.66
2023-03-12T20:17:30.362Z,99901.03
2023-03-12T20:20:04.026Z,99882.06
2023-03-12T20:22:34.017Z,99899.81
2023-03-12T20:25:01.395Z,99873.19
2023-03-12T20:27:30.768Z,99893.25
2023-03-12T20:30:00.590Z,99862.47
2023-03-12T20:32:27.392Z,99875.25
2023-03-12T20:34:54.485Z,99880.34
2023-03-12T20:37:23.566Z,99872.41
2023-03-12T20:39:51.242Z,99834.81
2023-03-12T20:42:29.043Z,99880.19
2023-03-12T20:44:58.286Z,99881.13
2023-03-12T20:47:25.227Z,99882.97
2023-03-12T20:49:53.063Z,99886.59
2023-03-12T20:52:25.117Z,99884.03
2023-03-12T20:54:52.878Z,99885.03
2023-03-12T20:57:19.774Z,99846.38
2023-03-12T20:59:46.526Z,99873.53
2023-03-12T21:02:16.794Z,99864.66
2023-03-12T21:04:45.929Z,99850.66
2023-03-12T21:07:22.097Z,99875.75
2023-03-12T21:09:48.805Z,99864.97
2023-03-12T21:12:28.714Z,99862.53
2023-03-12T21:17:48.149Z,99863.16
2023-03-12T21:20:20.130Z,99848.69
2023-03-12T21:22:53.022Z,99820.31
2023-03-12T21:25:20.102Z,99869.44
2023-03-12T21:27:51.094Z,99870.53
2023-03-12T21:30:22.027Z,99823.38
2023-03-12T21:32:50.898Z,99804.66
2023-03-12T21:35:22.029Z,99851.09
2023-03-12T21:37:50.773Z,99847.75
2023-03-12T21:40:27.344Z,99843.66
2023-03-12T21:42:58.181Z,99849.25
2023-03-12T21:45:26.454Z,99848.66
2023-03-12T21:47:54.869Z,99822.53
2023-03-12T21:50:23.411Z,99828.59
2023-03-12T21:52:52.095Z,99817.63
2023-03-12T21:55:29.070Z,99808.47
2023-03-12T21:58:21.479Z,99808.38
2023-03-12T22:00:48.290Z,99812.44
2023-03-12T22:06:07.793Z,99819.41
2023-03-12T22:08:35.543Z,99806.59
2023-03-12T22:11:04.481Z,99791.31
2023-03-12T22:13:31.426Z,99811.81
2023-03-12T22:16:03.990Z,99799.91
2023-03-12T22:18:30.763Z,99777.19
2023-03-12T22:21:04.598Z,99797.53
2023-03-12T22:23:34.283Z,99776.84
2023-03-12T22:26:02.659Z,99795.75
2023-03-12T22:28:29.347Z,99794.09
2023-03-12T22:31:05.080Z,99786.56
2023-03-12T22:33:37.884Z,99778.69
2023-03-12T22:36:10.294Z,99784.91
2023-03-12T22:38:38.653Z,99767.13
2023-03-12T22:41:31.768Z,99767.06
2023-03-12T22:44:04.016Z,99773.13
2023-03-12T22:46:35.242Z,99776.47
2023-03-12T22:49:05.217Z,99770.94
2023-03-12T22:51:33.281Z,99766.59
2023-03-12T22:54:01.284Z,99762.84
2023-03-12T22:56:29.202Z,99762.84
2023-03-12T22:59:00.699Z,99744.84
2023-03-12T23:01:27.720Z,99697.53
2023-03-12T23:03:54.919Z,99716.81
2023-03-12T23:06:27.118Z,99748.25
2023-03-12T23:08:59.940Z,99692.03
2023-03-12T23:11:34.490Z,99723.31
2023-03-12T23:14:01.323Z,99717.44
2023-03-12T23:16:28.892Z,99752.19
2023-03-12T23:18:58.873Z,99672.25
2023-03-12T23:21:27.182Z,99690.09
2023-03-12T23:23:55.215Z,99757.47
2023-03-12T23:26:27.703Z,99688.75
2023-03-12T23:28:59.391Z,99705.00
2023-03-12T23:31:30.213Z,99697.31
2023-03-12T23:33:59.617Z,99740.16
2023-03-12T23:36:36.093Z,99709.59
2023-03-12T23:39:05.431Z,99737.69
2023-03-12T23:41:40.036Z,99732.06
2023-03-12T23:44:07.436Z,99729.28
2023-03-12T23:46:38.860Z,99710.94
2023-03-12T23:49:07.121Z,99721.19
2023-03-12T23:51:39.055Z,99718.63
2023-03-12T23:54:07.811Z,99714.34
2023-03-12T23:56:43.553Z,99706.66
2023-03-12T23:59:11.052Z,99682.94
